Detalii statie AGRONOVA [00001CEC]

Toti senzorii

Date Temperatura solului [C]Precipitatii [mm]Voltaj baterie [mV]Leaf Wetness [Min]HC Air temperature [C]HC Relative humidity [%]Punctul de roua [C]
medieminmaxsumaultimatimpmedieminmaxmediemediemin
2019-08-15 19:00:00 27 27 27.2 0 6904 25.25 24.22 26.45 0 0 0
2019-08-15 20:00:00 26.8 26.7 27.1 0 6728 22.15 20.02 23.91 0 0 0
2019-08-15 21:00:00 26.4 26.3 26.6 0 6552 18.78 17.92 19.74 0 0 0
2019-08-15 22:00:00 26.1 26 26.3 0 6532 20.21 19.93 20.98 0 0 0
2019-08-15 23:00:00 25.8 25.6 26.1 0 6532 19.55 17.94 20.93 0 0 0
2019-08-16 00:00:00 25.5 25.3 25.7 0 6532 19.89 18.83 20.86 0 0 0
2019-08-16 01:00:00 25.1 25 25.4 0 6532 20 19.73 20.42 0 0 0
2019-08-16 02:00:00 25 24.9 25.2 0 6532 19.35 18.89 19.82 0 0 0
2019-08-16 03:00:00 24.8 24.7 25 0 6522 19.53 18.9 19.8 0 0 0
2019-08-16 04:00:00 24.6 24.5 24.8 0 6522 19.32 18.31 19.85 0 0 0
2019-08-16 05:00:00 24.4 24.2 24.6 0 6512 16.56 15.08 18.03 0 0 0
2019-08-16 06:00:00 24.2 23.9 24.4 0 6502 14.05 13.41 15 0 0 0
2019-08-16 07:00:00 23.9 23.8 24.2 0 6542 17.27 14.48 19.9 0 0 0
2019-08-16 08:00:00 23.6 23.6 24 0 6572 20.45 19.54 20.95 0 0 0
2019-08-16 09:00:00 23.6 23.4 24 0 6640 21.52 20.48 22.6 0 0 0
2019-08-16 10:00:00 23.6 23.4 24 0 6904 23.92 22.54 25.24 0 0 0
2019-08-16 11:00:00 23.9 23.7 24.3 0 7254 25.32 25.14 25.62 0 0 0
2019-08-16 12:00:00 24.6 24.3 25 0 7246 26.22 25.19 27.1 0 0 0
2019-08-16 13:00:00 25.3 25.1 25.7 0 7246 27 26.08 28.13 0 0 0
2019-08-16 14:00:00 25.9 25.7 26.3 0 7246 27.49 26.69 28.26 0 0 0
2019-08-16 15:00:00 26.5 26.2 26.8 0 7226 26.74 24.57 28.21 0 0 0
2019-08-16 16:00:00 26.8 26.8 26.9 0 7148 26.95 25.01 27.8 0 0 0
2019-08-16 17:00:00 26.8 26.8 27 0 7040 26.73 24.3 27.41 0 0 0
2019-08-16 18:00:00 26.8 26.7 27 0 7020 25.66 24.12 26.61 0 0 0
2019-08-16 19:00:00 26.6 26.6 26.8 0 6884 23.39 21.78 24.77 0 0 0
2019-08-16 20:00:00 26.4 26.2 26.6 0 6688 19.35 18.06 21.24 0 0 0
2019-08-16 21:00:00 26 25.9 26.3 0 6552 17.19 16.68 17.75 0 0 0
2019-08-16 22:00:00 25.6 25.5 25.9 0 6532 16.5 16.38 16.76 0 0 0
2019-08-16 23:00:00 25.3 25.2 25.6 0 6522 17.26 16.85 17.64 0 0 0
2019-08-17 00:00:00 25 24.9 25.3 0 6532 16.48 15.9 17.09 0 0 0
2019-08-17 01:00:00 24.7 24.6 24.9 0 6532 16.36 15.78 16.71 0 0 0
2019-08-17 02:00:00 24.4 24.3 24.6 0 6522 14.95 14.15 16.1 0 0 0
2019-08-17 03:00:00 24 23.8 24.3 0 6512 13.46 12.92 14.27 0 0 0
2019-08-17 04:00:00 23.7 23.6 24.1 0 6512 13.17 12.81 13.46 0 0 0
2019-08-17 05:00:00 23.5 23.4 24 0 6502 12.79 12.33 13.34 0 0 0
2019-08-17 06:00:00 23.2 23.1 23.4 0 6502 12.54 12.42 12.74 0 0 0
2019-08-17 07:00:00 22.9 22.8 23.1 0 6542 13.9 12.72 15.73 0 0 0
2019-08-17 08:00:00 22.8 22.8 23 0 6610 18.65 16.06 20.88 0 0 0
2019-08-17 09:00:00 22.8 22.8 22.9 0 6718 23.44 21.2 25.53 0 0 0
2019-08-17 10:00:00 22.9 22.8 23.2 0 6952 26.49 25.25 27.82 0 0 0
2019-08-17 11:00:00 23.2 23.1 23.6 0 7246 27.49 25.72 28.73 0 0 0
2019-08-17 12:00:00 23.8 23.4 24.3 0 7246 29.51 28.61 31.18 0 0 0
2019-08-17 13:00:00 24.6 24.3 24.9 0 7118 30.19 27.32 32.72 0 0 0
2019-08-17 14:00:00 25.1 24.9 25.4 0 7236 31.29 27.22 34.41 0 0 0
2019-08-17 15:00:00 25.6 25.4 25.8 0 7158 31.78 29.39 33.99 0 0 0
2019-08-17 16:00:00 25.9 25.8 26.1 0 6982 27.79 27.28 29.18 0 0 0
2019-08-17 17:00:00 26 25.9 26.1 0 7236 28.74 27.51 29.61 0 0 0
2019-08-17 18:00:00 25.9 25.9 26.1 0 6972 27.9 27.11 28.66 0 0 0